sensor_id;sensor_type;location;lat;lon;timestamp;pressure;altitude;pressure_sealevel;temperature;humidity
62201;BME280;48197;42.732;27.192;2023-03-13T00:01:22;100120.25;;;1.79;100.00
62201;BME280;48197;42.732;27.192;2023-03-13T00:03:49;100119.94;;;1.93;100.00
62201;BME280;48197;42.732;27.192;2023-03-13T00:06:16;100125.75;;;2.04;100.00
62201;BME280;48197;42.732;27.192;2023-03-13T00:08:43;100129.06;;;2.10;100.00
62201;BME280;48197;42.732;27.192;2023-03-13T00:11:11;100129.06;;;2.10;100.00
62201;BME280;48197;42.732;27.192;2023-03-13T00:13:37;100128.16;;;2.06;100.00
62201;BME280;48197;42.732;27.192;2023-03-13T00:16:05;100130.09;;;2.05;100.00
62201;BME280;48197;42.732;27.192;2023-03-13T00:18:32;100123.72;;;2.01;100.00
62201;BME280;48197;42.732;27.192;2023-03-13T00:21:02;100123.25;;;1.99;100.00
62201;BME280;48197;42.732;27.192;2023-03-13T00:23:29;100124.03;;;1.99;100.00
62201;BME280;48197;42.732;27.192;2023-03-13T00:25:56;100116.13;;;2.19;100.00
62201;BME280;48197;42.732;27.192;2023-03-13T00:28:23;100110.84;;;2.35;100.00
62201;BME280;48197;42.732;27.192;2023-03-13T00:30:50;100117.63;;;2.41;100.00
62201;BME280;48197;42.732;27.192;2023-03-13T00:33:16;100117.16;;;2.39;100.00
62201;BME280;48197;42.732;27.192;2023-03-13T00:35:42;100120.13;;;2.34;100.00
62201;BME280;48197;42.732;27.192;2023-03-13T00:38:09;100120.13;;;2.34;100.00
62201;BME280;48197;42.732;27.192;2023-03-13T00:40:35;100124.09;;;2.36;100.00
62201;BME280;48197;42.732;27.192;2023-03-13T00:43:03;100132.19;;;2.33;100.00
62201;BME280;48197;42.732;27.192;2023-03-13T00:45:29;100122.97;;;2.25;100.00
62201;BME280;48197;42.732;27.192;2023-03-13T00:47:56;100124.19;;;2.15;100.00
62201;BME280;48197;42.732;27.192;2023-03-13T00:50:22;100131.22;;;2.04;100.00
62201;BME280;48197;42.732;27.192;2023-03-13T00:52:49;100131.75;;;1.97;100.00
62201;BME280;48197;42.732;27.192;2023-03-13T00:55:15;100134.25;;;1.90;100.00
62201;BME280;48197;42.732;27.192;2023-03-13T00:57:41;100128.09;;;1.93;100.00
62201;BME280;48197;42.732;27.192;2023-03-13T01:00:08;100132.00;;;2.04;100.00
62201;BME280;48197;42.732;27.192;2023-03-13T01:02:39;100137.03;;;2.15;100.00
62201;BME280;48197;42.732;27.192;2023-03-13T01:05:06;100134.09;;;2.20;100.00
62201;BME280;48197;42.732;27.192;2023-03-13T01:07:33;100131.25;;;2.16;100.00
62201;BME280;48197;42.732;27.192;2023-03-13T01:09:59;100133.28;;;2.07;100.00
62201;BME280;48197;42.732;27.192;2023-03-13T01:12:26;100132.59;;;2.10;100.00
62201;BME280;48197;42.732;27.192;2023-03-13T01:14:53;100137.81;;;2.03;100.00
62201;BME280;48197;42.732;27.192;2023-03-13T01:17:20;100135.16;;;1.94;100.00
62201;BME280;48197;42.732;27.192;2023-03-13T01:19:46;100133.56;;;1.93;100.00
62201;BME280;48197;42.732;27.192;2023-03-13T01:22:13;100135.81;;;1.91;100.00
62201;BME280;48197;42.732;27.192;2023-03-13T01:24:39;100133.22;;;1.95;100.00
62201;BME280;48197;42.732;27.192;2023-03-13T01:27:05;100139.47;;;1.95;100.00
62201;BME280;48197;42.732;27.192;2023-03-13T01:29:32;100135.97;;;1.95;100.00
62201;BME280;48197;42.732;27.192;2023-03-13T01:31:59;100131.31;;;1.95;100.00
62201;BME280;48197;42.732;27.192;2023-03-13T01:34:25;100136.41;;;1.97;100.00
62201;BME280;48197;42.732;27.192;2023-03-13T01:36:52;100133.69;;;1.97;100.00
62201;BME280;48197;42.732;27.192;2023-03-13T01:39:19;100129.72;;;1.94;100.00
62201;BME280;48197;42.732;27.192;2023-03-13T01:41:45;100133.78;;;1.88;100.00
62201;BME280;48197;42.732;27.192;2023-03-13T01:44:18;100134.13;;;1.87;100.00
62201;BME280;48197;42.732;27.192;2023-03-13T01:46:45;100134.56;;;1.89;100.00
62201;BME280;48197;42.732;27.192;2023-03-13T01:49:13;100147.28;;;1.84;100.00
62201;BME280;48197;42.732;27.192;2023-03-13T01:51:46;100146.13;;;1.86;100.00
62201;BME280;48197;42.732;27.192;2023-03-13T01:54:15;100152.41;;;1.86;100.00
62201;BME280;48197;42.732;27.192;2023-03-13T01:59:38;100158.56;;;1.95;100.00
62201;BME280;48197;42.732;27.192;2023-03-13T02:02:06;100164.94;;;1.99;100.00
62201;BME280;48197;42.732;27.192;2023-03-13T02:04:37;100173.34;;;2.07;100.00
62201;BME280;48197;42.732;27.192;2023-03-13T02:07:06;100175.28;;;2.06;100.00
62201;BME280;48197;42.732;27.192;2023-03-13T02:09:35;100176.91;;;2.07;100.00
62201;BME280;48197;42.732;27.192;2023-03-13T02:12:08;100185.53;;;2.09;100.00
62201;BME280;48197;42.732;27.192;2023-03-13T02:14:36;100182.94;;;2.13;100.00
62201;BME280;48197;42.732;27.192;2023-03-13T02:17:04;100190.00;;;2.14;100.00
62201;BME280;48197;42.732;27.192;2023-03-13T02:19:52;100191.25;;;2.16;100.00
62201;BME280;48197;42.732;27.192;2023-03-13T02:27:23;100197.53;;;1.96;100.00
62201;BME280;48197;42.732;27.192;2023-03-13T02:29:49;100197.34;;;2.01;100.00
62201;BME280;48197;42.732;27.192;2023-03-13T02:32:16;100200.06;;;2.01;100.00
62201;BME280;48197;42.732;27.192;2023-03-13T02:34:43;100201.78;;;2.06;100.00
62201;BME280;48197;42.732;27.192;2023-03-13T02:37:12;100212.00;;;2.09;100.00
62201;BME280;48197;42.732;27.192;2023-03-13T02:39:43;100215.53;;;2.09;100.00
62201;BME280;48197;42.732;27.192;2023-03-13T02:42:11;100221.31;;;2.08;100.00
62201;BME280;48197;42.732;27.192;2023-03-13T02:44:40;100229.84;;;2.06;100.00
62201;BME280;48197;42.732;27.192;2023-03-13T02:47:06;100221.88;;;2.01;100.00
62201;BME280;48197;42.732;27.192;2023-03-13T02:49:35;100230.38;;;1.99;100.00
62201;BME280;48197;42.732;27.192;2023-03-13T02:52:16;100241.69;;;1.89;100.00
62201;BME280;48197;42.732;27.192;2023-03-13T02:54:43;100235.84;;;1.78;100.00
62201;BME280;48197;42.732;27.192;2023-03-13T02:57:11;100251.09;;;1.71;100.00
62201;BME280;48197;42.732;27.192;2023-03-13T02:59:37;100255.19;;;1.65;100.00
62201;BME280;48197;42.732;27.192;2023-03-13T03:02:04;100262.41;;;1.60;100.00
62201;BME280;48197;42.732;27.192;2023-03-13T03:04:30;100265.38;;;1.47;100.00
62201;BME280;48197;42.732;27.192;2023-03-13T03:06:57;100259.94;;;1.17;100.00
62201;BME280;48197;42.732;27.192;2023-03-13T03:09:23;100269.66;;;0.88;100.00
62201;BME280;48197;42.732;27.192;2023-03-13T03:11:50;100261.72;;;0.66;100.00
62201;BME280;48197;42.732;27.192;2023-03-13T03:14:16;100264.19;;;0.41;100.00
62201;BME280;48197;42.732;27.192;2023-03-13T03:16:43;100274.94;;;0.11;100.00
62201;BME280;48197;42.732;27.192;2023-03-13T03:19:09;100277.19;;;0.01;100.00
62201;BME280;48197;42.732;27.192;2023-03-13T03:21:36;100279.56;;;-0.07;100.00
62201;BME280;48197;42.732;27.192;2023-03-13T03:24:02;100280.69;;;-0.16;100.00
62201;BME280;48197;42.732;27.192;2023-03-13T03:26:29;100279.25;;;-0.14;100.00
62201;BME280;48197;42.732;27.192;2023-03-13T03:28:56;100289.50;;;-0.02;100.00
62201;BME280;48197;42.732;27.192;2023-03-13T03:31:23;100286.91;;;-0.16;100.00
62201;BME280;48197;42.732;27.192;2023-03-13T03:33:50;100281.94;;;-0.31;100.00
62201;BME280;48197;42.732;27.192;2023-03-13T03:36:18;100282.88;;;-0.53;100.00
62201;BME280;48197;42.732;27.192;2023-03-13T03:38:45;100282.69;;;-0.66;100.00
62201;BME280;48197;42.732;27.192;2023-03-13T03:41:12;100289.56;;;-0.59;100.00
62201;BME280;48197;42.732;27.192;2023-03-13T03:43:41;100288.72;;;-0.69;100.00
62201;BME280;48197;42.732;27.192;2023-03-13T03:46:08;100291.41;;;-0.77;100.00
62201;BME280;48197;42.732;27.192;2023-03-13T03:48:35;100297.28;;;-0.84;100.00
62201;BME280;48197;42.732;27.192;2023-03-13T03:51:01;100296.19;;;-0.83;100.00
62201;BME280;48197;42.732;27.192;2023-03-13T03:53:29;100294.09;;;-0.86;100.00
62201;BME280;48197;42.732;27.192;2023-03-13T03:55:55;100294.38;;;-0.96;100.00
62201;BME280;48197;42.732;27.192;2023-03-13T03:58:22;100301.34;;;-1.13;100.00
62201;BME280;48197;42.732;27.192;2023-03-13T04:00:49;100305.28;;;-1.19;100.00
62201;BME280;48197;42.732;27.192;2023-03-13T04:03:16;100305.44;;;-1.15;100.00
62201;BME280;48197;42.732;27.192;2023-03-13T04:05:43;100299.91;;;-1.10;100.00
62201;BME280;48197;42.732;27.192;2023-03-13T04:08:09;100298.78;;;-1.09;100.00
62201;BME280;48197;42.732;27.192;2023-03-13T04:10:36;100304.34;;;-1.14;100.00
62201;BME280;48197;42.732;27.192;2023-03-13T04:13:03;100312.22;;;-1.04;100.00
62201;BME280;48197;42.732;27.192;2023-03-13T04:15:29;100308.47;;;-0.86;100.00
62201;BME280;48197;42.732;27.192;2023-03-13T04:17:56;100311.31;;;-0.91;100.00
62201;BME280;48197;42.732;27.192;2023-03-13T04:20:22;100314.19;;;-0.96;100.00
62201;BME280;48197;42.732;27.192;2023-03-13T04:22:49;100315.81;;;-0.86;100.00
62201;BME280;48197;42.732;27.192;2023-03-13T04:25:16;100316.78;;;-0.82;100.00
62201;BME280;48197;42.732;27.192;2023-03-13T04:27:42;100325.13;;;-0.78;100.00
62201;BME280;48197;42.732;27.192;2023-03-13T04:30:09;100322.44;;;-0.70;100.00
62201;BME280;48197;42.732;27.192;2023-03-13T04:32:36;100331.16;;;-0.82;100.00
62201;BME280;48197;42.732;27.192;2023-03-13T04:35:02;100320.19;;;-0.68;100.00
62201;BME280;48197;42.732;27.192;2023-03-13T04:37:29;100328.97;;;-0.05;100.00
62201;BME280;48197;42.732;27.192;2023-03-13T04:39:56;100332.31;;;0.45;100.00
62201;BME280;48197;42.732;27.192;2023-03-13T04:42:22;100338.72;;;0.75;100.00
62201;BME280;48197;42.732;27.192;2023-03-13T04:44:49;100338.31;;;0.94;100.00
62201;BME280;48197;42.732;27.192;2023-03-13T04:47:15;100346.00;;;1.00;100.00
62201;BME280;48197;42.732;27.192;2023-03-13T04:49:42;100342.63;;;1.04;100.00
62201;BME280;48197;42.732;27.192;2023-03-13T04:52:09;100348.84;;;1.13;100.00
62201;BME280;48197;42.732;27.192;2023-03-13T04:54:35;100348.06;;;1.04;100.00
62201;BME280;48197;42.732;27.192;2023-03-13T04:57:02;100352.31;;;0.75;100.00
62201;BME280;48197;42.732;27.192;2023-03-13T04:59:29;100353.75;;;0.64;100.00
62201;BME280;48197;42.732;27.192;2023-03-13T05:01:56;100351.06;;;0.46;100.00
62201;BME280;48197;42.732;27.192;2023-03-13T05:04:23;100352.97;;;0.37;100.00
62201;BME280;48197;42.732;27.192;2023-03-13T05:06:49;100356.66;;;0.50;100.00
62201;BME280;48197;42.732;27.192;2023-03-13T05:09:16;100359.97;;;0.81;100.00
62201;BME280;48197;42.732;27.192;2023-03-13T05:11:41;100354.56;;;1.29;100.00
62201;BME280;48197;42.732;27.192;2023-03-13T05:14:08;100362.41;;;1.90;100.00
62201;BME280;48197;42.732;27.192;2023-03-13T05:16:37;100375.38;;;2.43;100.00
62201;BME280;48197;42.732;27.192;2023-03-13T05:19:04;100368.81;;;2.78;100.00
62201;BME280;48197;42.732;27.192;2023-03-13T05:21:30;100380.16;;;3.01;100.00
62201;BME280;48197;42.732;27.192;2023-03-13T05:23:56;100383.16;;;3.20;100.00
62201;BME280;48197;42.732;27.192;2023-03-13T05:26:22;100373.28;;;3.53;100.00
62201;BME280;48197;42.732;27.192;2023-03-13T05:28:49;100377.25;;;4.04;100.00
62201;BME280;48197;42.732;27.192;2023-03-13T05:31:16;100384.66;;;4.57;100.00
62201;BME280;48197;42.732;27.192;2023-03-13T05:33:42;100388.88;;;5.10;100.00
62201;BME280;48197;42.732;27.192;2023-03-13T05:36:09;100395.69;;;5.32;100.00
62201;BME280;48197;42.732;27.192;2023-03-13T05:38:35;100396.16;;;5.50;100.00
62201;BME280;48197;42.732;27.192;2023-03-13T05:41:02;100399.97;;;5.62;100.00
62201;BME280;48197;42.732;27.192;2023-03-13T05:43:28;100404.13;;;5.56;100.00
62201;BME280;48197;42.732;27.192;2023-03-13T05:45:55;100404.22;;;5.59;100.00
62201;BME280;48197;42.732;27.192;2023-03-13T05:48:21;100411.59;;;5.90;100.00
62201;BME280;48197;42.732;27.192;2023-03-13T05:50:48;100405.91;;;5.96;100.00
62201;BME280;48197;42.732;27.192;2023-03-13T05:53:14;100408.63;;;5.96;100.00
62201;BME280;48197;42.732;27.192;2023-03-13T05:55:41;100416.81;;;6.27;100.00
62201;BME280;48197;42.732;27.192;2023-03-13T05:58:08;100395.44;;;6.56;99.73
62201;BME280;48197;42.732;27.192;2023-03-13T06:00:34;100399.78;;;6.77;98.33
62201;BME280;48197;42.732;27.192;2023-03-13T06:03:02;100400.31;;;7.25;94.04
62201;BME280;48197;42.732;27.192;2023-03-13T06:05:29;100401.06;;;7.45;90.75
62201;BME280;48197;42.732;27.192;2023-03-13T06:07:55;100410.88;;;7.23;88.29
62201;BME280;48197;42.732;27.192;2023-03-13T06:10:22;100409.75;;;6.85;91.37
62201;BME280;48197;42.732;27.192;2023-03-13T06:12:52;100417.94;;;7.01;90.94
62201;BME280;48197;42.732;27.192;2023-03-13T06:15:19;100420.03;;;6.88;91.17
62201;BME280;48197;42.732;27.192;2023-03-13T06:17:46;100418.00;;;6.65;91.63
62201;BME280;48197;42.732;27.192;2023-03-13T06:20:13;100427.41;;;6.64;93.29
62201;BME280;48197;42.732;27.192;2023-03-13T06:22:40;100430.84;;;6.61;90.41
62201;BME280;48197;42.732;27.192;2023-03-13T06:25:07;100420.47;;;6.70;89.78
62201;BME280;48197;42.732;27.192;2023-03-13T06:27:34;100420.25;;;6.99;88.88
62201;BME280;48197;42.732;27.192;2023-03-13T06:30:00;100428.66;;;7.29;86.13
62201;BME280;48197;42.732;27.192;2023-03-13T06:32:28;100418.44;;;7.29;85.72
62201;BME280;48197;42.732;27.192;2023-03-13T06:34:56;100416.75;;;7.44;84.21
62201;BME280;48197;42.732;27.192;2023-03-13T06:37:23;100414.56;;;7.53;83.28
62201;BME280;48197;42.732;27.192;2023-03-13T06:39:49;100423.00;;;7.41;82.87
62201;BME280;48197;42.732;27.192;2023-03-13T06:42:16;100408.91;;;7.23;84.81
62201;BME280;48197;42.732;27.192;2023-03-13T06:44:43;100410.66;;;7.54;82.34
62201;BME280;48197;42.732;27.192;2023-03-13T06:47:09;100427.34;;;7.65;83.11
62201;BME280;48197;42.732;27.192;2023-03-13T06:49:36;100414.09;;;7.74;79.53
62201;BME280;48197;42.732;27.192;2023-03-13T06:52:03;100428.69;;;7.75;80.54
62201;BME280;48197;42.732;27.192;2023-03-13T06:54:29;100417.72;;;7.78;77.32
62201;BME280;48197;42.732;27.192;2023-03-13T06:56:56;100417.88;;;7.89;77.36
62201;BME280;48197;42.732;27.192;2023-03-13T06:59:30;100436.91;;;8.25;75.53
62201;BME280;48197;42.732;27.192;2023-03-13T07:11:11;100440.97;;;9.66;65.81
62201;BME280;48197;42.732;27.192;2023-03-13T07:13:38;100431.03;;;9.58;64.84
62201;BME280;48197;42.732;27.192;2023-03-13T07:16:07;100445.56;;;9.51;64.83
62201;BME280;48197;42.732;27.192;2023-03-13T07:18:33;100449.31;;;9.73;64.93
62201;BME280;48197;42.732;27.192;2023-03-13T07:21:01;100455.22;;;9.72;65.07
62201;BME280;48197;42.732;27.192;2023-03-13T07:23:32;100447.06;;;9.90;63.24
62201;BME280;48197;42.732;27.192;2023-03-13T07:26:04;100442.97;;;10.21;60.14
62201;BME280;48197;42.732;27.192;2023-03-13T07:28:30;100447.81;;;10.31;60.60
62201;BME280;48197;42.732;27.192;2023-03-13T07:31:07;100449.66;;;10.75;59.47
62201;BME280;48197;42.732;27.192;2023-03-13T07:33:34;100444.94;;;10.87;56.40
62201;BME280;48197;42.732;27.192;2023-03-13T07:36:00;100450.03;;;10.74;55.22
62201;BME280;48197;42.732;27.192;2023-03-13T07:38:27;100445.81;;;11.16;55.76
62201;BME280;48197;42.732;27.192;2023-03-13T07:40:54;100442.31;;;11.26;53.42
62201;BME280;48197;42.732;27.192;2023-03-13T07:43:24;100445.16;;;11.55;53.28
62201;BME280;48197;42.732;27.192;2023-03-13T07:45:56;100434.44;;;11.46;53.53
62201;BME280;48197;42.732;27.192;2023-03-13T07:48:25;100446.66;;;11.27;52.10
62201;BME280;48197;42.732;27.192;2023-03-13T07:50:53;100434.38;;;11.17;54.22
62201;BME280;48197;42.732;27.192;2023-03-13T07:53:19;100436.00;;;11.33;52.76
62201;BME280;48197;42.732;27.192;2023-03-13T07:55:53;100436.81;;;11.44;50.78
62201;BME280;48197;42.732;27.192;2023-03-13T07:58:21;100437.63;;;11.73;49.70
62201;BME280;48197;42.732;27.192;2023-03-13T08:00:48;100426.19;;;12.11;48.31
62201;BME280;48197;42.732;27.192;2023-03-13T08:03:15;100432.91;;;11.84;47.26
62201;BME280;48197;42.732;27.192;2023-03-13T08:05:42;100429.25;;;11.30;49.02
62201;BME280;48197;42.732;27.192;2023-03-13T08:08:08;100439.91;;;11.17;49.00
62201;BME280;48197;42.732;27.192;2023-03-13T08:10:35;100425.72;;;11.30;49.75
62201;BME280;48197;42.732;27.192;2023-03-13T08:13:02;100435.28;;;12.00;48.15
62201;BME280;48197;42.732;27.192;2023-03-13T08:15:28;100433.50;;;12.82;40.96
62201;BME280;48197;42.732;27.192;2023-03-13T08:17:55;100428.94;;;13.31;35.73
62201;BME280;48197;42.732;27.192;2023-03-13T08:20:21;100415.66;;;13.60;36.58
62201;BME280;48197;42.732;27.192;2023-03-13T08:22:48;100414.63;;;13.88;34.22
62201;BME280;48197;42.732;27.192;2023-03-13T08:25:15;100417.09;;;13.76;34.36
62201;BME280;48197;42.732;27.192;2023-03-13T08:27:42;100404.16;;;13.58;32.50
62201;BME280;48197;42.732;27.192;2023-03-13T08:30:10;100433.66;;;12.35;32.15
62201;BME280;48197;42.732;27.192;2023-03-13T08:32:36;100429.72;;;12.29;33.73
62201;BME280;48197;42.732;27.192;2023-03-13T08:35:04;100427.34;;;12.28;33.32
62201;BME280;48197;42.732;27.192;2023-03-13T08:37:30;100440.00;;;11.85;33.68
62201;BME280;48197;42.732;27.192;2023-03-13T08:40:01;100437.66;;;11.80;34.21
62201;BME280;48197;42.732;27.192;2023-03-13T08:42:37;100424.59;;;11.74;33.21
62201;BME280;48197;42.732;27.192;2023-03-13T08:45:03;100415.09;;;12.07;33.34
62201;BME280;48197;42.732;27.192;2023-03-13T08:47:31;100417.44;;;12.16;34.33
62201;BME280;48197;42.732;27.192;2023-03-13T08:49:58;100421.00;;;12.23;34.65
62201;BME280;48197;42.732;27.192;2023-03-13T08:52:25;100415.00;;;12.57;34.89
62201;BME280;48197;42.732;27.192;2023-03-13T08:54:51;100422.88;;;12.70;34.75
62201;BME280;48197;42.732;27.192;2023-03-13T08:57:17;100425.72;;;12.44;33.86
62201;BME280;48197;42.732;27.192;2023-03-13T08:59:44;100420.59;;;12.36;34.98
62201;BME280;48197;42.732;27.192;2023-03-13T09:02:11;100410.66;;;12.53;34.48
62201;BME280;48197;42.732;27.192;2023-03-13T09:04:37;100407.81;;;12.71;34.45
62201;BME280;48197;42.732;27.192;2023-03-13T09:07:04;100418.16;;;12.52;32.01
62201;BME280;48197;42.732;27.192;2023-03-13T09:09:34;100422.16;;;12.44;33.09
62201;BME280;48197;42.732;27.192;2023-03-13T09:12:08;100413.41;;;12.56;32.80
62201;BME280;48197;42.732;27.192;2023-03-13T09:14:37;100404.63;;;12.69;33.27
62201;BME280;48197;42.732;27.192;2023-03-13T09:17:03;100394.00;;;12.53;33.63
62201;BME280;48197;42.732;27.192;2023-03-13T09:19:30;100406.00;;;11.96;33.06
62201;BME280;48197;42.732;27.192;2023-03-13T09:21:56;100409.94;;;11.77;33.52
62201;BME280;48197;42.732;27.192;2023-03-13T09:24:23;100412.31;;;11.75;35.18
62201;BME280;48197;42.732;27.192;2023-03-13T09:26:49;100413.88;;;12.12;34.78
62201;BME280;48197;42.732;27.192;2023-03-13T09:29:16;100411.53;;;12.10;33.81
62201;BME280;48197;42.732;27.192;2023-03-13T09:31:43;100409.16;;;11.98;33.37
62201;BME280;48197;42.732;27.192;2023-03-13T09:34:08;100395.31;;;11.98;33.91
62201;BME280;48197;42.732;27.192;2023-03-13T09:36:34;100395.69;;;12.07;33.40
62201;BME280;48197;42.732;27.192;2023-03-13T10:10:14;100392.03;;;12.50;28.46
62201;BME280;48197;42.732;27.192;2023-03-13T10:12:46;100375.78;;;12.59;27.84
62201;BME280;48197;42.732;27.192;2023-03-13T10:17:45;100386.88;;;12.59;27.92
62201;BME280;48197;42.732;27.192;2023-03-13T10:20:23;100392.06;;;12.46;26.42
62201;BME280;48197;42.732;27.192;2023-03-13T10:22:58;100380.97;;;12.42;29.20
62201;BME280;48197;42.732;27.192;2023-03-13T10:25:27;100379.28;;;12.66;26.93
62201;BME280;48197;42.732;27.192;2023-03-13T10:27:55;100380.84;;;12.75;27.53
62201;BME280;48197;42.732;27.192;2023-03-13T10:30:26;100380.41;;;12.87;26.33
62201;BME280;48197;42.732;27.192;2023-03-13T10:32:56;100372.03;;;12.91;27.37
62201;BME280;48197;42.732;27.192;2023-03-13T10:35:24;100377.25;;;12.81;26.72
62201;BME280;48197;42.732;27.192;2023-03-13T10:38:03;100369.31;;;12.80;26.90
62201;BME280;48197;42.732;27.192;2023-03-13T10:40:30;100378.91;;;12.61;27.42
62201;BME280;48197;42.732;27.192;2023-03-13T10:43:03;100369.34;;;12.76;27.28
62201;BME280;48197;42.732;27.192;2023-03-13T10:45:34;100370.03;;;12.95;27.51
62201;BME280;48197;42.732;27.192;2023-03-13T10:48:09;100368.13;;;12.84;25.32
62201;BME280;48197;42.732;27.192;2023-03-13T10:50:40;100368.63;;;12.58;26.07
62201;BME280;48197;42.732;27.192;2023-03-13T10:53:52;100359.09;;;12.66;26.50
62201;BME280;48197;42.732;27.192;2023-03-13T10:58:43;100338.97;;;12.48;27.84
62201;BME280;48197;42.732;27.192;2023-03-13T11:03:36;100341.63;;;12.73;28.82
62201;BME280;48197;42.732;27.192;2023-03-13T11:06:03;100338.28;;;12.99;30.18
62201;BME280;48197;42.732;27.192;2023-03-13T11:08:33;100330.47;;;12.83;28.13
62201;BME280;48197;42.732;27.192;2023-03-13T11:11:02;100311.00;;;12.94;28.97
62201;BME280;48197;42.732;27.192;2023-03-13T11:16:32;100293.09;;;13.55;29.31
62201;BME280;48197;42.732;27.192;2023-03-13T11:19:00;100298.81;;;13.37;29.57
62201;BME280;48197;42.732;27.192;2023-03-13T11:21:38;100297.53;;;13.48;29.54
62201;BME280;48197;42.732;27.192;2023-03-13T11:24:12;100303.88;;;13.45;28.56
62201;BME280;48197;42.732;27.192;2023-03-13T11:26:57;100304.56;;;13.60;27.63
62201;BME280;48197;42.732;27.192;2023-03-13T11:29:38;100304.56;;;13.57;29.17
62201;BME280;48197;42.732;27.192;2023-03-13T11:32:21;100300.13;;;13.66;29.37
62201;BME280;48197;42.732;27.192;2023-03-13T11:34:50;100294.06;;;13.79;29.46
62201;BME280;48197;42.732;27.192;2023-03-13T11:37:18;100297.81;;;13.99;28.58
62201;BME280;48197;42.732;27.192;2023-03-13T11:39:59;100299.94;;;13.84;27.06
62201;BME280;48197;42.732;27.192;2023-03-13T11:42:35;100287.13;;;13.56;29.03
62201;BME280;48197;42.732;27.192;2023-03-13T11:45:07;100281.97;;;13.96;27.18
62201;BME280;48197;42.732;27.192;2023-03-13T11:50:22;100272.44;;;13.59;29.45
62201;BME280;48197;42.732;27.192;2023-03-13T11:53:09;100276.66;;;14.09;30.09
62201;BME280;48197;42.732;27.192;2023-03-13T12:06:24;100260.41;;;14.38;27.31
62201;BME280;48197;42.732;27.192;2023-03-13T12:08:52;100257.81;;;14.24;28.28
62201;BME280;48197;42.732;27.192;2023-03-13T12:11:21;100261.81;;;14.54;30.15
62201;BME280;48197;42.732;27.192;2023-03-13T12:14:00;100255.53;;;14.46;29.94
62201;BME280;48197;42.732;27.192;2023-03-13T12:16:43;100246.13;;;14.67;30.45
62201;BME280;48197;42.732;27.192;2023-03-13T12:19:15;100244.88;;;14.99;29.62
62201;BME280;48197;42.732;27.192;2023-03-13T12:21:49;100250.03;;;14.73;30.34
62201;BME280;48197;42.732;27.192;2023-03-13T12:24:20;100242.97;;;14.65;28.97
62201;BME280;48197;42.732;27.192;2023-03-13T12:26:50;100253.00;;;14.86;28.06
62201;BME280;48197;42.732;27.192;2023-03-13T12:29:36;100237.59;;;14.81;28.58
62201;BME280;48197;42.732;27.192;2023-03-13T12:32:12;100243.00;;;14.34;30.07
62201;BME280;48197;42.732;27.192;2023-03-13T12:34:44;100246.75;;;14.51;29.78
62201;BME280;48197;42.732;27.192;2023-03-13T12:37:19;100243.34;;;14.94;29.98
62201;BME280;48197;42.732;27.192;2023-03-13T12:39:47;100234.03;;;14.81;29.62
62201;BME280;48197;42.732;27.192;2023-03-13T12:42:22;100249.44;;;14.27;29.00
62201;BME280;48197;42.732;27.192;2023-03-13T12:44:55;100242.69;;;14.25;31.02
62201;BME280;48197;42.732;27.192;2023-03-13T12:47:50;100251.66;;;14.70;29.81
62201;BME280;48197;42.732;27.192;2023-03-13T12:55:54;100252.63;;;14.57;30.21
62201;BME280;48197;42.732;27.192;2023-03-13T13:00:52;100248.31;;;14.21;29.83
62201;BME280;48197;42.732;27.192;2023-03-13T13:03:22;100248.00;;;14.16;31.43
62201;BME280;48197;42.732;27.192;2023-03-13T13:08:35;100252.63;;;14.57;30.98
62201;BME280;48197;42.732;27.192;2023-03-13T13:13:47;100244.88;;;15.22;30.63
62201;BME280;48197;42.732;27.192;2023-03-13T13:16:14;100238.75;;;15.31;29.11
62201;BME280;48197;42.732;27.192;2023-03-13T13:18:43;100236.69;;;15.35;30.54
62201;BME280;48197;42.732;27.192;2023-03-13T13:23:40;100231.88;;;15.16;32.35
62201;BME280;48197;42.732;27.192;2023-03-13T13:28:59;100220.06;;;15.08;33.05
62201;BME280;48197;42.732;27.192;2023-03-13T13:36:57;100231.63;;;14.52;33.30
62201;BME280;48197;42.732;27.192;2023-03-13T13:44:57;100230.53;;;14.73;33.92
62201;BME280;48197;42.732;27.192;2023-03-13T13:47:24;100239.75;;;14.39;32.91
62201;BME280;48197;42.732;27.192;2023-03-13T13:49:54;100241.69;;;14.42;33.71
62201;BME280;48197;42.732;27.192;2023-03-13T13:55:00;100238.25;;;14.31;33.38
62201;BME280;48197;42.732;27.192;2023-03-13T13:57:31;100230.63;;;14.39;34.01
62201;BME280;48197;42.732;27.192;2023-03-13T14:00:19;100240.03;;;14.18;33.43
62201;BME280;48197;42.732;27.192;2023-03-13T14:02:48;100234.75;;;13.93;32.94
62201;BME280;48197;42.732;27.192;2023-03-13T14:05:26;100232.44;;;13.87;34.30
62201;BME280;48197;42.732;27.192;2023-03-13T14:08:06;100244.00;;;13.82;34.91
62201;BME280;48197;42.732;27.192;2023-03-13T14:10:37;100240.91;;;14.11;34.01
62201;BME280;48197;42.732;27.192;2023-03-13T14:13:11;100235.69;;;14.17;32.28
62201;BME280;48197;42.732;27.192;2023-03-13T14:15:40;100241.53;;;14.22;32.98
62201;BME280;48197;42.732;27.192;2023-03-13T14:21:26;100238.81;;;14.19;32.84
62201;BME280;48197;42.732;27.192;2023-03-13T14:23:32;100243.72;;;14.07;32.80
62201;BME280;48197;42.732;27.192;2023-03-13T14:26:07;100251.78;;;13.98;32.75
62201;BME280;48197;42.732;27.192;2023-03-13T14:28:37;100251.75;;;14.02;32.55
62201;BME280;48197;42.732;27.192;2023-03-13T14:31:19;100259.31;;;13.63;33.09
62201;BME280;48197;42.732;27.192;2023-03-13T14:33:48;100255.41;;;13.57;34.69
62201;BME280;48197;42.732;27.192;2023-03-13T14:36:14;100256.84;;;13.69;34.78